createdAt,value
2018-12-01T00:00:21.989Z,10.80
2018-12-01T00:02:50.751Z,10.63
2018-12-01T00:05:19.103Z,11.80
2018-12-01T00:07:47.761Z,11.53
2018-12-01T00:10:16.345Z,10.37
2018-12-01T00:12:44.690Z,14.97
2018-12-01T00:15:16.179Z,15.27
2018-12-01T00:17:44.690Z,14.60
2018-12-01T00:20:14.488Z,12.03
2018-12-01T00:22:42.831Z,11.17
2018-12-01T00:25:11.355Z,10.50
2018-12-01T00:27:39.670Z,11.47
2018-12-01T00:30:14.134Z,9.17
2018-12-01T00:32:42.869Z,10.87
2018-12-01T00:35:11.973Z,8.27
2018-12-01T00:37:40.430Z,10.47
2018-12-01T00:40:12.087Z,8.30
2018-12-01T00:42:40.628Z,11.90
2018-12-01T00:45:10.774Z,10.37
2018-12-01T00:47:46.618Z,8.53
2018-12-01T00:50:17.869Z,10.00
2018-12-01T00:52:46.884Z,11.30
2018-12-01T00:55:16.104Z,9.00
2018-12-01T00:57:44.626Z,15.73
2018-12-01T01:00:21.678Z,11.43
2018-12-01T01:02:52.452Z,13.17
2018-12-01T01:05:21.558Z,10.87
2018-12-01T01:07:50.001Z,13.40
2018-12-01T01:10:18.838Z,13.77
2018-12-01T01:12:47.539Z,12.50
2018-12-01T01:15:15.939Z,12.07
2018-12-01T01:17:44.663Z,10.40
2018-12-01T01:20:14.246Z,11.37
2018-12-01T01:22:42.610Z,14.80
2018-12-01T01:25:12.038Z,9.40
2018-12-01T01:27:40.419Z,13.37
2018-12-01T01:30:13.319Z,10.63
2018-12-01T01:32:41.632Z,6.40
2018-12-01T01:35:09.929Z,10.50
2018-12-01T01:37:38.521Z,12.10
2018-12-01T01:40:08.631Z,9.13
2018-12-01T01:42:37.009Z,7.77
2018-12-01T01:45:08.922Z,7.53
2018-12-01T01:47:37.251Z,12.07
2018-12-01T01:50:07.735Z,9.40
2018-12-01T01:52:36.252Z,13.33
2018-12-01T01:55:05.740Z,13.23
2018-12-01T01:57:34.111Z,11.50
2018-12-01T02:00:02.700Z,9.80
2018-12-01T02:02:31.024Z,14.37
2018-12-01T02:04:59.330Z,10.07
2018-12-01T02:07:27.846Z,10.40
2018-12-01T02:09:56.164Z,12.93
2018-12-01T02:12:24.482Z,11.53
2018-12-01T02:14:53.002Z,9.67
2018-12-01T02:17:21.347Z,11.57
2018-12-01T02:19:49.680Z,13.03
2018-12-01T02:22:18.279Z,13.77
2018-12-01T02:24:46.613Z,10.37
2018-12-01T02:27:14.963Z,11.70
2018-12-01T02:29:43.499Z,12.77
2018-12-01T02:32:11.833Z,9.13
2018-12-01T02:34:40.249Z,8.20
2018-12-01T02:37:08.755Z,11.67
2018-12-01T02:39:37.148Z,8.40
2018-12-01T02:42:05.761Z,11.13
2018-12-01T02:44:59.987Z,9.33
2018-12-01T02:47:28.322Z,11.60
2018-12-01T02:49:56.686Z,11.13
2018-12-01T02:52:25.431Z,11.00
2018-12-01T02:54:53.840Z,10.87
2018-12-01T02:57:22.149Z,7.87
2018-12-01T02:59:50.667Z,8.50
2018-12-01T03:02:19.495Z,8.27
2018-12-01T03:04:47.814Z,14.93
2018-12-01T03:07:16.315Z,8.17
2018-12-01T03:09:44.711Z,9.37
2018-12-01T03:12:13.023Z,9.03
2018-12-01T03:14:41.542Z,9.77
2018-12-01T03:17:09.874Z,9.87
2018-12-01T03:19:38.191Z,10.10
2018-12-01T03:22:06.806Z,6.33
2018-12-01T03:24:35.134Z,11.63
2018-12-01T03:27:03.462Z,9.17
2018-12-01T03:29:32.062Z,11.87
2018-12-01T03:32:00.402Z,12.07
2018-12-01T03:34:28.712Z,9.60
2018-12-01T03:36:57.276Z,14.67
2018-12-01T03:39:25.615Z,12.23
2018-12-01T03:41:53.916Z,7.50
2018-12-01T03:44:29.046Z,12.27
2018-12-01T03:46:57.377Z,10.43
2018-12-01T03:49:25.693Z,8.40
2018-12-01T03:51:54.300Z,12.80
2018-12-01T03:54:22.646Z,8.10
2018-12-01T03:56:51.010Z,9.10
2018-12-01T03:59:19.522Z,8.67
2018-12-01T04:01:47.870Z,6.53
2018-12-01T04:04:16.222Z,13.30
2018-12-01T04:06:44.766Z,8.80
2018-12-01T04:09:18.474Z,9.77
2018-12-01T04:11:47.051Z,11.37
2018-12-01T04:14:15.368Z,11.93
2018-12-01T04:16:43.739Z,7.23
2018-12-01T04:19:12.488Z,8.57
2018-12-01T04:21:40.833Z,10.27
2018-12-01T04:24:09.171Z,11.23
2018-12-01T04:26:37.736Z,12.27
2018-12-01T04:29:06.082Z,9.17
2018-12-01T04:31:34.396Z,6.50
2018-12-01T04:34:02.970Z,11.87
2018-12-01T04:36:31.312Z,8.30
2018-12-01T04:38:59.659Z,8.90
2018-12-01T04:41:28.202Z,10.50
2018-12-01T04:43:56.620Z,12.93
2018-12-01T04:46:24.930Z,11.20
2018-12-01T04:48:53.442Z,14.13
2018-12-01T04:51:21.824Z,8.23
2018-12-01T04:53:50.166Z,8.70
2018-12-01T04:56:18.893Z,7.87
2018-12-01T04:58:47.224Z,13.03
2018-12-01T05:01:16.416Z,12.37
2018-12-01T05:03:44.820Z,8.73
2018-12-01T05:06:13.159Z,10.40
2018-12-01T05:08:41.499Z,9.33
2018-12-01T05:11:10.180Z,8.40
2018-12-01T05:13:38.494Z,11.83
2018-12-01T05:16:06.815Z,8.20
2018-12-01T05:18:35.430Z,10.47
2018-12-01T05:21:03.811Z,7.40
2018-12-01T05:23:32.280Z,9.40
2018-12-01T05:26:00.861Z,11.50
2018-12-01T05:28:29.192Z,11.00
2018-12-01T05:30:57.524Z,12.40
2018-12-01T05:33:26.311Z,9.87
2018-12-01T05:35:54.663Z,8.20
2018-12-01T05:38:22.996Z,8.20
2018-12-01T05:40:51.407Z,8.83
2018-12-01T05:43:19.825Z,9.20
2018-12-01T05:45:48.204Z,10.93
2018-12-01T05:48:16.791Z,5.30
2018-12-01T05:50:46.158Z,10.50
2018-12-01T05:53:14.494Z,10.50
2018-12-01T05:55:43.245Z,9.83
2018-12-01T05:58:11.552Z,8.93
2018-12-01T06:00:39.924Z,8.90
2018-12-01T06:03:08.483Z,7.63
2018-12-01T06:05:36.937Z,11.27
2018-12-01T06:08:05.991Z,11.13
2018-12-01T06:10:34.548Z,11.57
2018-12-01T06:13:03.250Z,7.60
2018-12-01T06:15:32.262Z,10.37
2018-12-01T06:18:00.782Z,11.30
2018-12-01T06:20:29.231Z,10.93
2018-12-01T06:22:57.579Z,8.83
2018-12-01T06:25:26.196Z,11.40
2018-12-01T06:27:55.242Z,11.70
2018-12-01T06:30:23.776Z,9.23
2018-12-01T06:32:52.920Z,10.47
2018-12-01T06:35:21.374Z,12.17
2018-12-01T06:37:49.732Z,8.87
2018-12-01T06:40:19.424Z,10.03
2018-12-01T06:42:47.916Z,14.93
2018-12-01T06:45:16.816Z,11.43
2018-12-01T06:47:45.449Z,9.77
2018-12-01T06:50:16.022Z,11.53
2018-12-01T06:52:44.411Z,11.77
2018-12-01T06:55:14.170Z,10.73
2018-12-01T06:57:43.284Z,10.20
2018-12-01T07:00:19.931Z,15.97
2018-12-01T07:02:48.755Z,11.83
2018-12-01T07:05:17.530Z,12.73
2018-12-01T07:07:46.053Z,13.43
2018-12-01T07:10:16.265Z,13.03
2018-12-01T07:12:47.289Z,10.03
2018-12-01T07:15:19.233Z,14.40
2018-12-01T07:17:47.567Z,11.17
2018-12-01T07:20:16.583Z,14.70
2018-12-01T07:22:44.917Z,13.60
2018-12-01T07:25:13.359Z,10.53
2018-12-01T07:27:42.029Z,8.80
2018-12-01T07:30:11.736Z,12.23
2018-12-01T07:32:40.377Z,11.57
2018-12-01T07:35:09.319Z,13.50
2018-12-01T07:37:37.993Z,14.93
2018-12-01T07:40:15.417Z,14.07
2018-12-01T07:42:43.740Z,9.77
2018-12-01T07:45:13.313Z,11.43
2018-12-01T07:47:42.169Z,12.30
2018-12-01T07:50:12.727Z,10.30
2018-12-01T07:52:41.734Z,13.10
2018-12-01T07:55:10.274Z,9.80
2018-12-01T07:57:38.623Z,16.73
2018-12-01T08:00:19.108Z,15.33
2018-12-01T08:02:48.920Z,14.50
2018-12-01T08:05:17.295Z,10.10
2018-12-01T08:07:45.840Z,15.53
2018-12-01T08:10:15.238Z,9.13
2018-12-01T08:12:43.678Z,11.03
2018-12-01T08:15:16.400Z,15.00
2018-12-01T08:17:45.232Z,14.77
2018-12-01T08:20:14.396Z,12.00
2018-12-01T08:22:43.024Z,10.33
2018-12-01T08:25:13.121Z,11.67
2018-12-01T08:27:41.547Z,14.17
2018-12-01T08:30:12.377Z,13.83
2018-12-01T08:32:40.746Z,14.70
2018-12-01T08:35:09.077Z,12.60
2018-12-01T08:37:37.847Z,14.50
2018-12-01T08:40:09.352Z,15.03
2018-12-01T08:42:37.156Z,14.33
2018-12-01T08:45:08.559Z,15.50
2018-12-01T08:47:38.456Z,10.27
2018-12-01T08:50:10.643Z,11.83
2018-12-01T08:52:39.201Z,11.40
2018-12-01T08:55:10.251Z,16.67
2018-12-01T08:57:38.958Z,14.33
2018-12-01T09:00:18.421Z,10.10
2018-12-01T09:02:48.613Z,13.47
2018-12-01T09:05:18.143Z,12.47
2018-12-01T09:07:48.154Z,12.60
2018-12-01T09:10:16.925Z,11.73
2018-12-01T09:12:45.760Z,17.77
2018-12-01T09:15:14.119Z,14.60
2018-12-01T09:17:42.620Z,13.07
2018-12-01T09:20:12.727Z,16.00
2018-12-01T09:22:44.041Z,17.70
2018-12-01T09:25:14.402Z,14.33
2018-12-01T09:27:42.907Z,11.87
2018-12-01T09:30:15.891Z,14.77
2018-12-01T09:32:44.704Z,15.00
2018-12-01T09:35:13.069Z,15.13
2018-12-01T09:37:41.690Z,17.10
2018-12-01T09:40:13.238Z,14.37
2018-12-01T09:42:41.767Z,14.40
2018-12-01T09:45:18.289Z,13.53
2018-12-01T09:47:47.793Z,13.43
2018-12-01T09:50:16.171Z,11.50
2018-12-01T09:52:45.725Z,12.13
2018-12-01T09:55:18.241Z,11.00
2018-12-01T09:57:47.235Z,10.30
2018-12-01T10:00:27.770Z,13.73
2018-12-01T10:02:56.212Z,15.63
2018-12-01T10:05:24.604Z,14.07
2018-12-01T10:07:52.971Z,14.43
2018-12-01T10:10:22.381Z,11.00
2018-12-01T10:12:54.902Z,10.37
2018-12-01T10:15:25.339Z,8.47
2018-12-01T10:17:54.295Z,10.63
2018-12-01T10:20:27.021Z,8.03
2018-12-01T10:22:55.715Z,10.50
2018-12-01T10:25:24.113Z,15.50
2018-12-01T10:27:52.817Z,13.00
2018-12-01T10:30:21.897Z,10.27
2018-12-01T10:32:51.060Z,13.37
2018-12-01T10:35:20.885Z,17.93
2018-12-01T10:37:55.649Z,17.07
2018-12-01T10:40:24.067Z,11.70
2018-12-01T10:45:29.559Z,15.47
2018-12-01T10:47:57.917Z,11.80
2018-12-01T10:50:26.283Z,10.90
2018-12-01T10:52:55.601Z,12.77
2018-12-01T10:55:27.903Z,13.60
2018-12-01T10:58:03.430Z,11.63
2018-12-01T11:00:37.547Z,15.27
2018-12-01T11:03:11.056Z,14.73
2018-12-01T11:05:39.387Z,16.47
2018-12-01T11:08:08.822Z,17.73
2018-12-01T11:10:37.753Z,13.57
2018-12-01T11:13:06.104Z,16.40
2018-12-01T11:15:34.433Z,14.60
2018-12-01T11:18:02.866Z,15.40
2018-12-01T11:20:31.205Z,12.47
2018-12-01T11:22:59.535Z,13.23
2018-12-01T11:25:28.079Z,12.93
2018-12-01T11:27:56.446Z,14.50
2018-12-01T11:30:24.762Z,13.67
2018-12-01T11:32:53.211Z,12.70
2018-12-01T11:35:21.534Z,13.57
2018-12-01T11:37:50.056Z,15.50
2018-12-01T11:40:19.056Z,13.60
2018-12-01T11:42:47.814Z,12.77
2018-12-01T11:45:16.913Z,15.37
2018-12-01T11:47:45.542Z,14.53
2018-12-01T11:50:16.912Z,12.60
2018-12-01T11:52:47.252Z,13.63
2018-12-01T11:55:17.656Z,13.27
2018-12-01T11:57:45.976Z,15.70
2018-12-01T12:00:18.576Z,15.40
2018-12-01T12:02:46.942Z,14.33
2018-12-01T12:05:16.186Z,17.63
2018-12-01T12:07:56.100Z,15.93
2018-12-01T12:10:24.597Z,14.53
2018-12-01T12:12:53.016Z,13.10
2018-12-01T12:15:23.239Z,14.87
2018-12-01T12:17:59.374Z,13.67
2018-12-01T12:20:28.124Z,14.13
2018-12-01T12:22:56.436Z,13.47
2018-12-01T12:25:24.789Z,11.60
2018-12-01T12:27:53.395Z,14.07
2018-12-01T12:30:25.845Z,12.90
2018-12-01T12:32:51.503Z,17.10
2018-12-01T12:35:20.100Z,16.77
2018-12-01T12:37:48.441Z,15.07
2018-12-01T12:40:21.176Z,13.27
2018-12-01T12:42:49.737Z,15.20
2018-12-01T12:45:18.128Z,13.00
2018-12-01T12:47:46.737Z,15.47
2018-12-01T12:50:16.154Z,15.33
2018-12-01T12:52:45.227Z,14.60
2018-12-01T12:55:17.534Z,11.80
2018-12-01T12:57:45.885Z,13.33
2018-12-01T13:00:24.426Z,12.07
2018-12-01T13:02:55.561Z,13.37
2018-12-01T13:05:30.315Z,12.03
2018-12-01T13:07:58.638Z,13.77
2018-12-01T13:10:27.207Z,11.97
2018-12-01T13:12:58.789Z,13.60
2018-12-01T13:15:27.123Z,13.17
2018-12-01T13:17:55.486Z,11.73
2018-12-01T13:20:25.070Z,11.37
2018-12-01T13:22:55.777Z,13.50
2018-12-01T13:25:24.113Z,10.77
2018-12-01T13:27:55.309Z,10.40
2018-12-01T13:30:25.159Z,11.20
2018-12-01T13:32:53.650Z,10.83
2018-12-01T13:35:22.073Z,9.60
2018-12-01T13:37:50.419Z,13.53
2018-12-01T13:40:18.749Z,13.03
2018-12-01T13:42:47.586Z,11.77
2018-12-01T13:45:16.950Z,11.57
2018-12-01T13:47:46.300Z,11.17
2018-12-01T13:50:16.791Z,10.87
2018-12-01T13:52:49.561Z,11.63
2018-12-01T13:55:18.213Z,10.77
2018-12-01T13:57:47.550Z,12.73
2018-12-01T14:00:17.858Z,10.20
2018-12-01T14:02:46.638Z,12.10
2018-12-01T14:05:14.989Z,10.90
2018-12-01T14:07:43.454Z,10.70
2018-12-01T14:10:16.176Z,11.00
2018-12-01T14:12:45.708Z,10.47
2018-12-01T14:15:15.432Z,11.20
2018-12-01T14:17:43.964Z,12.33
2018-12-01T14:20:16.014Z,14.47
2018-12-01T14:22:45.334Z,13.70
2018-12-01T14:25:15.839Z,12.80
2018-12-01T14:27:49.060Z,12.47
2018-12-01T14:30:17.741Z,13.23
2018-12-01T14:32:46.536Z,9.73
2018-12-01T14:35:16.348Z,11.83
2018-12-01T14:37:45.877Z,13.33
2018-12-01T14:40:14.300Z,10.17
2018-12-01T14:42:43.505Z,10.83
2018-12-01T14:45:12.922Z,9.33
2018-12-01T14:47:41.236Z,9.83
2018-12-01T14:50:17.684Z,10.33
2018-12-01T14:52:47.141Z,5.97
2018-12-01T14:55:17.742Z,10.87
2018-12-01T14:57:47.206Z,12.80
2018-12-01T15:00:22.000Z,8.73
2018-12-01T15:02:51.245Z,9.07
2018-12-01T15:05:19.877Z,11.03
2018-12-01T15:07:48.825Z,11.20
2018-12-01T15:10:19.258Z,9.90
2018-12-01T15:12:47.607Z,13.63
2018-12-01T15:15:18.249Z,11.87
2018-12-01T15:17:46.934Z,10.00
2018-12-01T15:20:17.430Z,6.63
2018-12-01T15:22:47.236Z,10.07
2018-12-01T15:25:19.587Z,9.73
2018-12-01T15:27:48.034Z,7.10
2018-12-01T15:30:21.389Z,7.03
2018-12-01T15:33:18.751Z,10.13
2018-12-01T15:35:47.296Z,8.97
2018-12-01T15:38:15.915Z,6.87
2018-12-01T15:40:45.657Z,6.33
2018-12-01T15:43:14.069Z,6.10
2018-12-01T15:45:42.510Z,8.90
2018-12-01T15:48:11.071Z,6.57
2018-12-01T15:50:39.398Z,6.47
2018-12-01T15:53:10.474Z,6.60
2018-12-01T15:55:38.972Z,5.33
2018-12-01T15:58:07.732Z,5.93
2018-12-01T16:00:36.717Z,5.30
2018-12-01T16:03:05.257Z,4.40
2018-12-01T16:05:33.635Z,5.90
2018-12-01T16:08:02.177Z,7.63
2018-12-01T16:10:30.749Z,5.00
2018-12-01T16:13:09.665Z,4.97
2018-12-01T16:15:40.120Z,4.40
2018-12-01T16:18:08.974Z,4.87
2018-12-01T16:20:37.359Z,5.90
2018-12-01T16:23:05.961Z,3.97
2018-12-01T16:25:34.275Z,4.00
2018-12-01T16:28:02.665Z,4.63
2018-12-01T16:30:36.412Z,4.57
2018-12-01T16:33:07.032Z,7.27
2018-12-01T16:35:35.417Z,3.77
2018-12-01T16:38:04.391Z,5.53
2018-12-01T16:40:40.776Z,4.83
2018-12-01T16:43:10.823Z,3.73
2018-12-01T16:45:39.561Z,5.30
2018-12-01T16:48:08.036Z,5.20
2018-12-01T16:50:36.603Z,7.47
2018-12-01T16:53:06.717Z,4.77
2018-12-01T16:55:35.289Z,3.67
2018-12-01T16:58:03.803Z,4.10
2018-12-01T17:00:32.377Z,4.27
2018-12-01T17:03:00.853Z,4.63
2018-12-01T17:05:31.483Z,5.60
2018-12-01T17:08:00.022Z,6.33
2018-12-01T17:10:28.410Z,4.60
2018-12-01T17:12:58.407Z,4.67
2018-12-01T17:15:26.194Z,4.13
2018-12-01T17:17:54.584Z,3.33
2018-12-01T17:20:23.242Z,4.20
2018-12-01T17:22:56.104Z,6.03
2018-12-01T17:25:24.646Z,4.37
2018-12-01T17:27:54.202Z,4.50
2018-12-01T17:30:23.560Z,4.17
2018-12-01T17:32:52.792Z,4.43
2018-12-01T17:35:26.019Z,2.30
2018-12-01T17:37:56.002Z,2.50
2018-12-01T17:40:31.248Z,3.10
2018-12-01T17:42:59.852Z,3.37
2018-12-01T17:45:28.160Z,2.03
2018-12-01T17:47:56.620Z,2.13
2018-12-01T17:50:25.294Z,1.50
2018-12-01T17:52:54.934Z,2.23
2018-12-01T17:55:24.281Z,2.50
2018-12-01T17:57:53.389Z,3.00
2018-12-01T18:00:25.087Z,3.53
2018-12-01T18:02:55.433Z,2.33
2018-12-01T18:05:27.000Z,2.03
2018-12-01T18:07:55.351Z,3.17
2018-12-01T18:10:24.015Z,2.97
2018-12-01T18:12:52.460Z,2.77
2018-12-01T18:15:20.799Z,2.37
2018-12-01T18:17:49.291Z,3.97
2018-12-01T18:20:21.678Z,4.53
2018-12-01T18:23:00.076Z,3.60
2018-12-01T18:25:30.846Z,3.17
2018-12-01T18:27:59.423Z,2.40
2018-12-01T18:30:33.346Z,2.47
2018-12-01T18:33:08.611Z,3.27
2018-12-01T18:35:37.122Z,2.97
2018-12-01T18:38:05.988Z,3.67
2018-12-01T18:40:40.879Z,2.83
2018-12-01T18:43:09.682Z,2.63
2018-12-01T18:45:40.846Z,3.73
2018-12-01T18:48:09.444Z,2.90
2018-12-01T18:53:17.320Z,3.47
2018-12-01T18:55:50.544Z,3.33
2018-12-01T18:58:19.145Z,2.70
2018-12-01T19:00:48.956Z,4.57
2018-12-01T19:03:17.734Z,2.77
2018-12-01T19:05:46.186Z,3.37
2018-12-01T19:08:14.514Z,2.80
2018-12-01T19:10:42.840Z,3.63
2018-12-01T19:13:11.338Z,3.07
2018-12-01T19:15:39.704Z,3.33
2018-12-01T19:18:08.472Z,2.97
2018-12-01T19:20:37.248Z,3.97
2018-12-01T19:23:06.684Z,4.13
2018-12-01T19:25:35.119Z,3.53
2018-12-01T19:28:03.688Z,4.17
2018-12-01T19:30:32.000Z,4.80
2018-12-01T19:33:04.977Z,4.67
2018-12-01T19:35:33.284Z,3.93
2018-12-01T19:38:01.585Z,3.60
2018-12-01T19:40:31.463Z,3.63
2018-12-01T19:43:00.460Z,3.53
2018-12-01T19:45:28.785Z,5.73
2018-12-01T19:47:57.253Z,3.90
2018-12-01T19:50:28.681Z,3.70
2018-12-01T19:52:57.005Z,2.60
2018-12-01T19:55:26.410Z,2.53
2018-12-01T19:57:54.753Z,2.80
2018-12-01T20:00:25.555Z,3.37
2018-12-01T20:02:54.375Z,2.97
2018-12-01T20:05:22.741Z,3.10
2018-12-01T20:07:51.904Z,3.03
2018-12-01T20:10:30.957Z,3.33
2018-12-01T20:13:07.775Z,4.07
2018-12-01T20:15:42.181Z,3.23
2018-12-01T20:18:13.991Z,3.63
2018-12-01T20:20:42.357Z,3.97
2018-12-01T20:23:10.863Z,4.17
2018-12-01T20:25:39.214Z,5.13
2018-12-01T20:28:07.658Z,3.90
2018-12-01T20:30:36.212Z,3.10
2018-12-01T20:33:04.549Z,3.97
2018-12-01T20:35:49.710Z,4.10
2018-12-01T20:40:26.437Z,3.63
2018-12-01T20:42:54.881Z,4.47
2018-12-01T20:45:23.245Z,4.73
2018-12-01T20:47:51.590Z,5.00
2018-12-01T20:50:20.310Z,5.23
2018-12-01T20:52:48.644Z,4.60
2018-12-01T20:55:22.046Z,4.33
2018-12-01T20:57:52.318Z,5.87
2018-12-01T21:00:21.416Z,6.37
2018-12-01T21:02:50.086Z,5.93
2018-12-01T21:05:19.911Z,4.73
2018-12-01T21:07:48.301Z,5.23
2018-12-01T21:10:19.879Z,4.03
2018-12-01T21:12:48.431Z,5.23
2018-12-01T21:15:16.846Z,4.37
2018-12-01T21:17:45.355Z,5.07
2018-12-01T21:20:16.234Z,5.70
2018-12-01T21:22:47.304Z,4.43
2018-12-01T21:25:19.852Z,5.57
2018-12-01T21:27:49.050Z,5.23
2018-12-01T21:30:18.966Z,5.20
2018-12-01T21:32:49.090Z,4.73
2018-12-01T21:35:17.804Z,4.73
2018-12-01T21:37:46.164Z,4.27
2018-12-01T21:40:17.157Z,4.47
2018-12-01T21:42:45.706Z,4.80
2018-12-01T21:45:16.381Z,6.23
2018-12-01T21:47:43.749Z,4.80
2018-12-01T21:50:17.494Z,4.13
2018-12-01T21:52:51.254Z,3.83
2018-12-01T21:55:19.923Z,4.33
2018-12-01T21:57:48.876Z,3.80
2018-12-01T22:00:30.258Z,4.07
2018-12-01T22:03:00.378Z,3.73
2018-12-01T22:05:32.101Z,4.13
2018-12-01T22:08:00.486Z,3.93
2018-12-01T22:10:28.893Z,3.90
2018-12-01T22:12:57.522Z,4.03
2018-12-01T22:15:25.905Z,3.40
2018-12-01T22:17:54.271Z,3.47
2018-12-01T22:20:29.932Z,3.63
2018-12-01T22:22:58.313Z,3.40
2018-12-01T22:25:26.665Z,6.30
2018-12-01T22:27:55.372Z,3.93
2018-12-01T22:30:23.716Z,4.83
2018-12-01T22:32:56.647Z,4.97
2018-12-01T22:35:27.012Z,4.23
2018-12-01T22:37:56.153Z,3.40
2018-12-01T22:40:29.486Z,4.07
2018-12-01T22:43:02.638Z,3.20
2018-12-01T22:45:31.340Z,3.60
2018-12-01T22:48:01.418Z,2.90
2018-12-01T22:50:29.773Z,3.07
2018-12-01T22:52:58.587Z,2.90
2018-12-01T22:55:30.403Z,3.10
2018-12-01T22:59:17.075Z,2.87
2018-12-01T23:01:45.407Z,4.17
2018-12-01T23:04:13.763Z,3.77
2018-12-01T23:06:42.339Z,3.60
2018-12-01T23:09:10.675Z,4.10
2018-12-01T23:11:38.998Z,4.60
2018-12-01T23:14:07.566Z,4.00
2018-12-01T23:16:35.868Z,3.30
2018-12-01T23:19:04.220Z,4.50
2018-12-01T23:21:32.791Z,4.27
2018-12-01T23:24:01.111Z,4.53
2018-12-01T23:26:29.449Z,3.77
2018-12-01T23:28:58.080Z,4.60
2018-12-01T23:31:26.416Z,3.83
2018-12-01T23:33:54.747Z,6.27
2018-12-01T23:36:23.266Z,4.83
2018-12-01T23:38:51.653Z,4.57
2018-12-01T23:41:19.954Z,4.57
2018-12-01T23:43:48.508Z,5.73
2018-12-01T23:46:16.822Z,4.80
2018-12-01T23:48:45.134Z,4.37
2018-12-01T23:51:13.742Z,6.93
2018-12-01T23:53:42.075Z,4.40
2018-12-01T23:56:10.444Z,4.90
2018-12-01T23:58:38.840Z,5.47
